createdAt,value
2018-04-27T00:00:26.881Z,98.80
2018-04-27T00:02:53.100Z,98.70
2018-04-27T00:05:19.371Z,98.70
2018-04-27T00:07:45.582Z,98.70
2018-04-27T00:10:11.801Z,98.70
2018-04-27T00:12:38.784Z,98.80
2018-04-27T00:15:05.002Z,98.80
2018-04-27T00:17:31.971Z,98.90
2018-04-27T00:19:58.941Z,99.10
2018-04-27T00:22:25.172Z,99.00
2018-04-27T00:24:51.389Z,99.10
2018-04-27T00:27:17.623Z,99.00
2018-04-27T00:29:43.842Z,98.90
2018-04-27T00:32:10.780Z,98.90
2018-04-27T00:34:37.022Z,98.90
2018-04-27T00:37:03.265Z,99.00
2018-04-27T00:39:29.477Z,99.00
2018-04-27T00:41:55.699Z,99.00
2018-04-27T00:44:22.652Z,99.00
2018-04-27T00:46:49.598Z,99.00
2018-04-27T00:49:15.816Z,98.90
2018-04-27T00:51:42.175Z,98.80
2018-04-27T00:54:08.411Z,98.80
2018-04-27T00:56:34.634Z,98.70
2018-04-27T00:59:00.847Z,98.80
2018-04-27T01:01:27.069Z,98.90
2018-04-27T01:03:54.029Z,99.00
2018-04-27T01:06:20.991Z,99.00
2018-04-27T01:08:47.231Z,99.00
2018-04-27T01:11:13.441Z,99.00
2018-04-27T01:13:39.675Z,99.00
2018-04-27T01:16:05.899Z,98.90
2018-04-27T01:18:32.121Z,98.80
2018-04-27T01:20:58.347Z,98.90
2018-04-27T01:23:24.604Z,99.00
2018-04-27T01:25:50.841Z,99.00
2018-04-27T01:28:17.050Z,98.90
2018-04-27T01:30:43.259Z,98.90
2018-04-27T01:33:09.500Z,98.90
2018-04-27T01:35:35.699Z,98.80
2018-04-27T01:38:01.914Z,98.90
2018-04-27T01:40:28.376Z,98.90
2018-04-27T01:42:54.602Z,99.00
2018-04-27T01:45:20.814Z,99.00
2018-04-27T01:47:47.045Z,99.00
2018-04-27T01:50:13.305Z,99.10
2018-04-27T01:52:40.815Z,99.00
2018-04-27T01:55:07.853Z,99.00
2018-04-27T01:57:34.053Z,99.00
2018-04-27T02:00:00.258Z,99.10
2018-04-27T02:02:26.463Z,99.20
2018-04-27T02:04:53.414Z,99.30
2018-04-27T02:07:20.356Z,99.30
2018-04-27T02:09:46.585Z,99.20
2018-04-27T02:12:12.775Z,99.40
2018-04-27T02:14:38.995Z,99.20
2018-04-27T02:17:05.978Z,99.20
2018-04-27T02:19:32.205Z,99.20
2018-04-27T02:21:58.407Z,99.10
2018-04-27T02:24:24.632Z,99.00
2018-04-27T02:26:50.841Z,99.00
2018-04-27T02:29:17.058Z,98.90
2018-04-27T02:31:44.111Z,98.90
2018-04-27T02:34:11.047Z,98.90
2018-04-27T02:36:37.264Z,99.30
2018-04-27T02:39:03.548Z,99.40
2018-04-27T02:41:30.502Z,99.40
2018-04-27T02:43:57.455Z,99.40
2018-04-27T02:46:24.450Z,99.30
2018-04-27T02:48:50.658Z,99.20
2018-04-27T02:51:17.642Z,99.10
2018-04-27T02:53:44.028Z,99.10
2018-04-27T02:56:10.256Z,99.00
2018-04-27T02:58:37.207Z,99.20
2018-04-27T03:01:03.468Z,99.20
2018-04-27T03:03:29.690Z,99.20
2018-04-27T03:05:55.936Z,99.30
2018-04-27T03:08:22.258Z,99.20
2018-04-27T03:10:49.190Z,99.10
2018-04-27T03:13:15.417Z,99.10
2018-04-27T03:15:42.428Z,99.10
2018-04-27T03:18:08.682Z,99.10
2018-04-27T03:20:34.905Z,99.10
2018-04-27T03:23:01.126Z,99.30
2018-04-27T03:25:27.326Z,99.90
2018-04-27T03:27:53.546Z,99.90
2018-04-27T03:30:19.769Z,99.90
2018-04-27T03:32:45.986Z,99.70
2018-04-27T03:35:12.200Z,98.00
2018-04-27T03:37:39.169Z,96.70
2018-04-27T03:40:05.405Z,96.70
2018-04-27T03:42:31.634Z,96.50
2018-04-27T03:44:58.630Z,94.50
2018-04-27T03:47:24.842Z,94.40
2018-04-27T03:49:51.120Z,93.40
2018-04-27T03:52:17.376Z,92.60
2018-04-27T03:54:43.942Z,92.10
2018-04-27T03:57:10.148Z,91.90
2018-04-27T03:59:48.711Z,91.60
2018-04-27T04:02:27.083Z,91.60
2018-04-27T04:05:05.627Z,91.60
2018-04-27T04:07:31.850Z,93.80
2018-04-27T04:09:58.087Z,93.60
2018-04-27T04:12:24.341Z,93.00
2018-04-27T04:14:50.555Z,92.30
2018-04-27T04:17:16.853Z,92.20
2018-04-27T04:19:43.093Z,91.80
2018-04-27T04:22:09.341Z,91.30
2018-04-27T04:24:35.597Z,90.20
2018-04-27T04:27:01.844Z,90.00
2018-04-27T04:29:28.828Z,88.80
2018-04-27T04:31:55.067Z,88.80
2018-04-27T04:34:21.298Z,88.20
2018-04-27T04:36:47.520Z,88.20
2018-04-27T04:39:14.494Z,89.20
2018-04-27T04:41:41.536Z,90.40
2018-04-27T04:44:08.568Z,90.80
2018-04-27T04:46:34.796Z,90.80
2018-04-27T04:49:01.031Z,90.90
2018-04-27T04:51:27.282Z,90.50
2018-04-27T04:53:53.505Z,90.10
2018-04-27T04:56:20.442Z,90.40
2018-04-27T04:58:46.678Z,90.60
2018-04-27T05:01:12.938Z,90.20
2018-04-27T05:03:39.202Z,88.80
2018-04-27T05:06:06.201Z,89.30
2018-04-27T05:08:33.169Z,88.70
2018-04-27T05:11:00.138Z,88.20
2018-04-27T05:13:26.366Z,88.20
2018-04-27T05:15:53.330Z,86.10
2018-04-27T05:18:31.307Z,86.10
2018-04-27T05:20:57.539Z,86.00
2018-04-27T05:23:23.765Z,86.60
2018-04-27T05:25:50.059Z,88.70
2018-04-27T05:28:17.107Z,90.40
2018-04-27T05:30:43.323Z,90.40
2018-04-27T05:33:09.577Z,90.80
2018-04-27T05:35:35.844Z,90.60
2018-04-27T05:38:02.127Z,90.70
2018-04-27T05:40:28.460Z,90.70
2018-04-27T05:42:54.698Z,90.90
2018-04-27T05:45:20.951Z,91.20
2018-04-27T05:47:47.206Z,91.40
2018-04-27T05:50:13.447Z,91.30
2018-04-27T05:52:39.694Z,91.40
2018-04-27T05:55:05.974Z,91.40
2018-04-27T05:57:33.348Z,91.40
2018-04-27T06:00:00.320Z,91.40
2018-04-27T06:02:26.684Z,91.40
2018-04-27T06:04:52.934Z,91.60
2018-04-27T06:07:19.156Z,91.70
2018-04-27T06:09:45.387Z,91.60
2018-04-27T06:12:11.624Z,91.40
2018-04-27T06:14:37.870Z,91.90
2018-04-27T06:17:04.138Z,91.70
2018-04-27T06:19:30.354Z,91.80
2018-04-27T06:21:56.594Z,91.70
2018-04-27T06:24:22.861Z,91.60
2018-04-27T06:26:49.112Z,91.40
2018-04-27T06:29:15.347Z,91.80
2018-04-27T06:31:41.711Z,92.10
2018-04-27T06:34:07.916Z,91.80
2018-04-27T06:36:34.091Z,91.80
2018-04-27T06:39:00.317Z,91.70
2018-04-27T06:41:26.547Z,91.50
2018-04-27T06:43:52.801Z,90.70
2018-04-27T06:46:19.065Z,90.30
2018-04-27T06:48:46.024Z,90.50
2018-04-27T06:51:13.005Z,90.70
2018-04-27T06:53:39.252Z,90.70
2018-04-27T06:56:05.504Z,90.70
2018-04-27T06:58:31.966Z,90.80
2018-04-27T07:00:58.233Z,90.90
2018-04-27T07:03:24.482Z,91.10
2018-04-27T07:05:50.737Z,91.10
2018-04-27T07:08:17.857Z,90.40
2018-04-27T07:10:44.104Z,90.40
2018-04-27T07:13:10.348Z,89.40
2018-04-27T07:15:36.621Z,88.10
2018-04-27T07:18:02.832Z,87.80
2018-04-27T07:20:29.076Z,88.30
2018-04-27T07:22:55.341Z,88.90
2018-04-27T07:25:22.325Z,89.80
2018-04-27T07:27:48.577Z,89.80
2018-04-27T07:30:14.861Z,90.10
2018-04-27T07:32:41.099Z,90.40
2018-04-27T07:35:07.347Z,90.60
2018-04-27T07:37:33.595Z,90.20
2018-04-27T07:40:00.571Z,90.10
2018-04-27T07:42:27.559Z,89.00
2018-04-27T07:44:53.828Z,89.00
2018-04-27T07:47:20.065Z,88.60
2018-04-27T07:49:47.075Z,89.20
2018-04-27T07:52:13.338Z,89.20
2018-04-27T07:54:39.598Z,89.50
2018-04-27T07:57:05.870Z,89.60
2018-04-27T07:59:33.390Z,88.20
2018-04-27T08:01:59.672Z,88.10
2018-04-27T08:04:25.964Z,87.40
2018-04-27T08:06:52.264Z,87.30
2018-04-27T08:09:18.524Z,87.30
2018-04-27T08:11:45.522Z,87.10
2018-04-27T08:14:11.812Z,87.80
2018-04-27T08:16:38.814Z,85.20
2018-04-27T08:19:05.078Z,85.10
2018-04-27T08:21:31.342Z,85.40
2018-04-27T08:23:57.586Z,85.90
2018-04-27T08:26:25.798Z,85.40
2018-04-27T08:28:52.069Z,85.60
2018-04-27T08:31:18.334Z,84.90
2018-04-27T08:33:44.598Z,84.90
2018-04-27T08:36:11.697Z,84.80
2018-04-27T08:38:38.013Z,84.20
2018-04-27T08:41:04.221Z,84.50
2018-04-27T08:43:30.478Z,83.80
2018-04-27T08:45:56.717Z,82.90
2018-04-27T08:48:22.950Z,82.50
2018-04-27T08:50:49.242Z,82.30
2018-04-27T08:53:15.502Z,81.20
2018-04-27T08:55:41.768Z,79.30
2018-04-27T08:58:08.084Z,77.70
2018-04-27T09:00:34.579Z,77.00
2018-04-27T09:03:00.828Z,76.70
2018-04-27T09:05:27.827Z,74.70
2018-04-27T09:07:54.080Z,74.70
2018-04-27T09:10:20.351Z,71.90
2018-04-27T09:12:46.593Z,71.60
2018-04-27T09:15:12.826Z,71.10
2018-04-27T09:17:39.070Z,70.90
2018-04-27T09:20:05.344Z,71.40
2018-04-27T09:22:31.577Z,70.80
2018-04-27T09:24:57.817Z,70.70
2018-04-27T09:27:24.850Z,69.50
2018-04-27T09:29:51.084Z,69.40
2018-04-27T09:32:17.370Z,68.50
2018-04-27T09:34:43.578Z,70.00
2018-04-27T09:37:09.839Z,68.80
2018-04-27T09:39:36.801Z,69.20
2018-04-27T09:42:03.075Z,69.20
2018-04-27T09:44:29.319Z,69.20
2018-04-27T09:46:55.559Z,66.90
2018-04-27T09:49:21.792Z,65.70
2018-04-27T09:51:48.036Z,66.30
2018-04-27T09:54:14.245Z,66.50
2018-04-27T09:56:41.230Z,65.80
2018-04-27T09:59:07.469Z,65.60
2018-04-27T10:01:33.969Z,64.90
2018-04-27T10:04:00.225Z,62.90
2018-04-27T10:06:26.477Z,63.30
2018-04-27T10:08:52.722Z,61.10
2018-04-27T10:11:18.977Z,60.30
2018-04-27T10:13:45.205Z,60.00
2018-04-27T10:16:11.441Z,57.40
2018-04-27T10:18:37.699Z,57.10
2018-04-27T10:21:03.930Z,58.10
2018-04-27T10:23:30.165Z,56.10
2018-04-27T10:25:56.608Z,56.30
2018-04-27T10:28:22.832Z,54.90
2018-04-27T10:30:49.832Z,53.70
2018-04-27T10:33:16.092Z,53.70
2018-04-27T10:35:42.329Z,52.70
2018-04-27T10:38:08.574Z,52.60
2018-04-27T10:40:34.825Z,52.10
2018-04-27T10:43:01.088Z,51.30
2018-04-27T10:45:27.318Z,51.00
2018-04-27T10:47:53.574Z,49.30
2018-04-27T10:50:20.634Z,49.10
2018-04-27T10:52:46.876Z,49.10
2018-04-27T10:55:13.898Z,48.10
2018-04-27T10:57:40.145Z,48.10
2018-04-27T11:00:06.408Z,46.40
2018-04-27T11:02:32.792Z,46.70
2018-04-27T11:04:59.066Z,46.30
2018-04-27T11:07:25.334Z,45.80
2018-04-27T11:09:51.589Z,45.70
2018-04-27T11:12:18.573Z,43.70
2018-04-27T11:14:44.831Z,43.70
2018-04-27T11:17:11.084Z,44.70
2018-04-27T11:19:37.343Z,44.50
2018-04-27T11:22:03.592Z,44.50
2018-04-27T11:24:36.944Z,44.20
2018-04-27T11:27:03.204Z,44.80
2018-04-27T11:29:29.423Z,44.60
2018-04-27T11:31:55.722Z,45.30
2018-04-27T11:34:22.686Z,45.00
2018-04-27T11:36:48.966Z,45.00
2018-04-27T11:39:15.207Z,44.60
2018-04-27T11:41:41.414Z,44.90
2018-04-27T11:44:07.675Z,44.40
2018-04-27T11:46:33.945Z,44.50
2018-04-27T11:49:00.175Z,43.50
2018-04-27T11:51:26.448Z,43.50
2018-04-27T11:53:52.689Z,43.50
2018-04-27T11:56:18.968Z,43.30
2018-04-27T11:58:46.153Z,42.80
2018-04-27T12:01:12.491Z,42.50
2018-04-27T12:03:39.334Z,42.80
2018-04-27T12:06:05.566Z,43.00
2018-04-27T12:08:32.573Z,41.70
2018-04-27T12:10:58.855Z,41.70
2018-04-27T12:13:25.854Z,42.40
2018-04-27T12:15:52.137Z,42.30
2018-04-27T12:18:18.395Z,42.50
2018-04-27T12:20:44.637Z,42.20
2018-04-27T12:23:10.877Z,42.50
2018-04-27T12:25:37.114Z,42.20
2018-04-27T12:28:03.347Z,42.70
2018-04-27T12:30:29.603Z,42.30
2018-04-27T12:32:56.591Z,41.90
2018-04-27T12:35:22.818Z,41.90
2018-04-27T12:37:49.132Z,41.50
2018-04-27T12:40:15.379Z,41.60
2018-04-27T12:42:41.641Z,42.00
2018-04-27T12:45:07.976Z,41.00
2018-04-27T12:47:34.191Z,40.80
2018-04-27T12:50:00.452Z,41.30
2018-04-27T12:52:27.447Z,41.90
2018-04-27T12:54:53.692Z,41.70
2018-04-27T12:57:19.970Z,40.90
2018-04-27T12:59:46.217Z,40.30
2018-04-27T13:02:12.464Z,39.80
2018-04-27T13:04:38.858Z,40.80
2018-04-27T13:07:05.144Z,40.90
2018-04-27T13:09:31.397Z,40.80
2018-04-27T13:11:58.400Z,40.80
2018-04-27T13:14:24.666Z,40.60
2018-04-27T13:16:50.919Z,41.20
2018-04-27T13:19:17.199Z,40.20
2018-04-27T13:21:43.441Z,40.30
2018-04-27T13:24:09.694Z,38.90
2018-04-27T13:26:35.966Z,40.00
2018-04-27T13:29:02.238Z,40.20
2018-04-27T13:31:28.501Z,40.60
2018-04-27T13:33:54.732Z,39.90
2018-04-27T13:36:21.026Z,39.80
2018-04-27T13:38:47.288Z,39.30
2018-04-27T13:41:13.602Z,39.20
2018-04-27T13:43:39.882Z,38.50
2018-04-27T13:46:06.128Z,38.80
2018-04-27T13:48:32.371Z,38.70
2018-04-27T13:50:58.665Z,39.00
2018-04-27T13:53:24.950Z,39.30
2018-04-27T13:55:51.223Z,38.90
2018-04-27T13:58:17.521Z,39.30
2018-04-27T14:00:43.843Z,38.90
2018-04-27T14:03:10.136Z,38.00
2018-04-27T14:05:36.636Z,38.50
2018-04-27T14:08:02.906Z,38.50
2018-04-27T14:10:29.181Z,38.50
2018-04-27T14:12:55.438Z,38.90
2018-04-27T14:15:21.691Z,39.30
2018-04-27T14:17:47.935Z,38.10
2018-04-27T14:20:14.218Z,38.30
2018-04-27T14:22:41.177Z,39.30
2018-04-27T14:25:07.418Z,39.30
2018-04-27T14:27:33.665Z,39.10
2018-04-27T14:30:00.729Z,39.60
2018-04-27T14:32:26.927Z,39.50
2018-04-27T14:34:53.161Z,39.50
2018-04-27T14:37:19.390Z,39.60
2018-04-27T14:39:45.636Z,38.80
2018-04-27T14:42:11.874Z,39.10
2018-04-27T14:44:38.091Z,39.10
2018-04-27T14:47:04.357Z,38.30
2018-04-27T14:49:30.768Z,38.30
2018-04-27T14:51:57.011Z,38.20
2018-04-27T14:54:23.976Z,37.80
2018-04-27T14:56:50.239Z,37.80
2018-04-27T14:59:16.480Z,37.20
2018-04-27T15:01:42.740Z,37.20
2018-04-27T15:04:08.987Z,38.00
2018-04-27T15:06:35.355Z,36.80
2018-04-27T15:09:02.350Z,37.30
2018-04-27T15:11:28.610Z,37.20
2018-04-27T15:13:54.870Z,37.10
2018-04-27T15:16:21.115Z,37.00
2018-04-27T15:18:47.348Z,37.20
2018-04-27T15:21:13.580Z,37.10
2018-04-27T15:23:39.826Z,36.50
2018-04-27T15:26:06.073Z,36.70
2018-04-27T15:28:32.330Z,36.60
2018-04-27T15:30:58.595Z,36.60
2018-04-27T15:33:24.832Z,37.00
2018-04-27T15:35:51.851Z,37.00
2018-04-27T15:38:18.127Z,37.00
2018-04-27T15:40:44.422Z,37.60
2018-04-27T15:43:10.674Z,37.40
2018-04-27T15:45:36.916Z,37.30
2018-04-27T15:48:03.200Z,37.50
2018-04-27T15:50:29.481Z,37.10
2018-04-27T15:52:55.727Z,37.00
2018-04-27T15:55:22.087Z,37.30
2018-04-27T15:57:48.319Z,37.10
2018-04-27T16:00:14.573Z,37.40
2018-04-27T16:02:40.815Z,37.40
2018-04-27T16:05:07.077Z,38.40
2018-04-27T16:07:34.205Z,37.80
2018-04-27T16:10:00.590Z,37.80
2018-04-27T16:12:26.855Z,38.00
2018-04-27T16:14:53.225Z,38.20
2018-04-27T16:17:19.447Z,38.50
2018-04-27T16:19:45.710Z,38.70
2018-04-27T16:22:12.026Z,38.70
2018-04-27T16:24:38.299Z,38.90
2018-04-27T16:27:04.962Z,38.90
2018-04-27T16:29:31.385Z,38.70
2018-04-27T16:31:58.619Z,38.30
2018-04-27T16:34:25.025Z,38.80
2018-04-27T16:36:52.549Z,39.40
2018-04-27T16:39:18.972Z,39.40
2018-04-27T16:41:45.311Z,39.30
2018-04-27T16:44:12.262Z,39.30
2018-04-27T16:46:38.504Z,39.30
2018-04-27T16:49:04.761Z,39.80
2018-04-27T16:51:31.022Z,40.60
2018-04-27T16:53:57.427Z,40.50
2018-04-27T16:56:24.509Z,41.50
2018-04-27T16:58:50.770Z,41.40
2018-04-27T17:01:17.041Z,41.90
2018-04-27T17:03:44.128Z,43.30
2018-04-27T17:06:10.378Z,43.20
2018-04-27T17:08:36.939Z,44.10
2018-04-27T17:11:03.213Z,45.50
2018-04-27T17:13:29.503Z,46.70
2018-04-27T17:15:55.762Z,47.60
2018-04-27T17:18:22.068Z,48.50
2018-04-27T17:20:49.085Z,50.30
2018-04-27T17:23:15.369Z,50.30
2018-04-27T17:25:42.364Z,51.60
2018-04-27T17:28:08.625Z,51.60
2018-04-27T17:30:34.894Z,52.30
2018-04-27T17:33:01.166Z,53.10
2018-04-27T17:35:27.445Z,53.80
2018-04-27T17:37:53.712Z,54.20
2018-04-27T17:40:20.031Z,54.60
2018-04-27T17:42:46.288Z,55.20
2018-04-27T17:45:12.548Z,55.50
2018-04-27T17:47:38.825Z,55.80
2018-04-27T17:50:05.080Z,56.00
2018-04-27T17:52:31.359Z,56.50
2018-04-27T17:54:57.641Z,57.20
2018-04-27T17:57:23.890Z,58.20
2018-04-27T17:59:50.142Z,59.10
2018-04-27T18:02:16.450Z,59.80
2018-04-27T18:04:43.448Z,60.40
2018-04-27T18:07:09.720Z,60.40
2018-04-27T18:09:36.276Z,60.70
2018-04-27T18:12:02.634Z,61.00
2018-04-27T18:14:28.842Z,61.40
2018-04-27T18:16:55.146Z,62.00
2018-04-27T18:19:21.448Z,62.60
2018-04-27T18:21:48.520Z,63.50
2018-04-27T18:24:15.563Z,64.40
2018-04-27T18:26:41.851Z,64.20
2018-04-27T18:29:08.136Z,65.30
2018-04-27T18:31:34.412Z,66.00
2018-04-27T18:34:01.390Z,66.90
2018-04-27T18:36:27.637Z,66.90
2018-04-27T18:38:53.926Z,67.40
2018-04-27T18:41:20.229Z,68.10
2018-04-27T18:43:46.504Z,69.00
2018-04-27T18:46:12.818Z,69.90
2018-04-27T18:48:39.083Z,70.60
2018-04-27T18:51:05.384Z,71.30
2018-04-27T18:53:32.573Z,72.00
2018-04-27T18:55:58.845Z,72.50
2018-04-27T18:58:25.145Z,72.90
2018-04-27T19:00:51.435Z,73.50
2018-04-27T19:03:17.742Z,74.60
2018-04-27T19:05:44.003Z,76.40
2018-04-27T19:08:10.305Z,77.10
2018-04-27T19:10:38.650Z,78.20
2018-04-27T19:13:06.542Z,78.30
2018-04-27T19:15:33.585Z,79.40
2018-04-27T19:17:59.869Z,79.30
2018-04-27T19:20:26.148Z,80.40
2018-04-27T19:22:52.486Z,81.70
2018-04-27T19:25:19.538Z,84.10
2018-04-27T19:27:45.852Z,84.10
2018-04-27T19:30:12.218Z,84.80
2018-04-27T19:32:38.526Z,85.20
2018-04-27T19:35:04.823Z,85.40
2018-04-27T19:37:31.204Z,85.50
2018-04-27T19:39:58.247Z,85.70
2018-04-27T19:42:25.270Z,86.70
2018-04-27T19:44:51.590Z,86.10
2018-04-27T19:47:17.898Z,86.30
2018-04-27T19:49:44.916Z,87.20
2018-04-27T19:52:11.272Z,87.20
2018-04-27T19:54:37.547Z,87.60
2018-04-27T19:57:03.808Z,88.20
2018-04-27T19:59:30.126Z,88.60
2018-04-27T20:01:57.132Z,89.20
2018-04-27T20:04:23.394Z,89.20
2018-04-27T20:06:49.740Z,89.50
2018-04-27T20:09:16.028Z,89.70
2018-04-27T20:11:42.454Z,90.30
2018-04-27T20:14:09.521Z,90.20
2018-04-27T20:16:40.359Z,90.30
2018-04-27T20:19:08.362Z,90.40
2018-04-27T20:21:34.668Z,90.30
2018-04-27T20:24:02.622Z,90.30
2018-04-27T20:26:28.884Z,90.40
2018-04-27T20:28:55.208Z,90.50
2018-04-27T20:31:21.503Z,90.60
2018-04-27T20:33:48.550Z,90.60
2018-04-27T20:36:15.595Z,90.80
2018-04-27T20:38:41.969Z,90.80
2018-04-27T20:41:08.163Z,91.10
2018-04-27T20:43:34.429Z,91.30
2018-04-27T20:46:01.440Z,91.40
2018-04-27T20:48:27.690Z,91.40
2018-04-27T20:50:56.987Z,91.30
2018-04-27T20:53:23.290Z,91.30
2018-04-27T20:55:52.073Z,91.70
2018-04-27T20:58:18.388Z,91.60
2018-04-27T21:00:44.693Z,91.70
2018-04-27T21:03:10.991Z,91.60
2018-04-27T21:05:37.293Z,91.70
2018-04-27T21:08:03.562Z,91.80
2018-04-27T21:10:31.796Z,91.80
2018-04-27T21:13:00.265Z,92.10
2018-04-27T21:15:26.519Z,92.10
2018-04-27T21:17:53.538Z,92.30
2018-04-27T21:20:20.644Z,92.30
2018-04-27T21:22:48.410Z,92.40
2018-04-27T21:25:31.088Z,92.60
2018-04-27T21:27:57.374Z,92.60
2018-04-27T21:30:24.361Z,93.10
2018-04-27T21:32:50.625Z,93.10
2018-04-27T21:35:16.868Z,93.20
2018-04-27T21:37:44.046Z,93.30
2018-04-27T21:40:10.366Z,93.50
2018-04-27T21:42:36.632Z,93.60
2018-04-27T21:45:02.879Z,93.70
2018-04-27T21:47:30.054Z,93.80
2018-04-27T21:49:56.306Z,94.10
2018-04-27T21:52:46.714Z,94.20
2018-04-27T21:55:13.720Z,94.30
2018-04-27T21:57:54.889Z,94.20
2018-04-27T22:00:22.030Z,94.40
2018-04-27T22:02:50.925Z,94.60
2018-04-27T22:08:30.239Z,94.70
2018-04-27T22:10:58.311Z,94.90
2018-04-27T22:13:25.074Z,95.00
2018-04-27T22:15:51.346Z,95.20
2018-04-27T22:18:17.617Z,95.30
2018-04-27T22:20:44.875Z,95.50
2018-04-27T22:23:11.113Z,95.60
2018-04-27T22:25:42.305Z,95.80
2018-04-27T22:28:09.308Z,96.00
2018-04-27T22:30:38.401Z,96.00
2018-04-27T22:36:27.614Z,96.40
2018-04-27T22:39:10.736Z,96.50
2018-04-27T22:41:36.998Z,96.40
2018-04-27T22:44:03.259Z,96.60
2018-04-27T22:46:29.525Z,96.70
2018-04-27T22:48:57.359Z,96.60
2018-04-27T22:51:46.422Z,96.60
2018-04-27T22:57:22.049Z,96.60
2018-04-27T22:59:49.292Z,96.50
2018-04-27T23:02:17.323Z,96.60
2018-04-27T23:04:43.596Z,96.80
2018-04-27T23:07:19.935Z,96.80
2018-04-27T23:09:46.231Z,96.90
2018-04-27T23:12:12.488Z,96.80
2018-04-27T23:14:38.858Z,96.80
2018-04-27T23:17:06.102Z,97.00
2018-04-27T23:19:33.222Z,97.20
2018-04-27T23:22:03.209Z,97.40
2018-04-27T23:24:32.482Z,97.60
2018-04-27T23:26:58.723Z,97.60
2018-04-27T23:29:25.006Z,97.80
2018-04-27T23:31:51.316Z,97.90
2018-04-27T23:34:18.561Z,97.80
2018-04-27T23:36:44.836Z,97.70
2018-04-27T23:39:11.099Z,97.60
2018-04-27T23:41:37.338Z,97.70
2018-04-27T23:44:03.607Z,97.90
2018-04-27T23:46:29.894Z,98.10
2018-04-27T23:48:56.142Z,98.20
2018-04-27T23:51:22.398Z,98.40
2018-04-27T23:53:48.672Z,98.60
2018-04-27T23:56:14.931Z,98.60
2018-04-27T23:58:42.181Z,98.60
